createdAt,value
2015-02-22T00:00:04.983Z,17
2015-02-22T00:00:18.390Z,17
2015-02-22T00:00:32.318Z,17
2015-02-22T00:00:46.230Z,17
2015-02-22T00:00:59.818Z,17
2015-02-22T00:01:13.357Z,17
2015-02-22T00:01:26.790Z,17
2015-02-22T00:01:40.441Z,17
2015-02-22T00:01:53.932Z,17
2015-02-22T00:02:07.331Z,17
2015-02-22T00:02:21.335Z,17
2015-02-22T00:02:34.995Z,17
2015-02-22T00:02:48.593Z,17
2015-02-22T00:03:02.137Z,17
2015-02-22T00:03:15.748Z,17
2015-02-22T00:03:29.738Z,17
2015-02-22T00:03:43.220Z,17
2015-02-22T00:03:56.728Z,17
2015-02-22T00:04:10.172Z,17
2015-02-22T00:04:23.549Z,17
2015-02-22T00:04:37.049Z,17
2015-02-22T00:04:50.638Z,4
2015-02-22T00:05:04.079Z,13
2015-02-22T00:05:17.512Z,17
2015-02-22T00:05:31.924Z,13
2015-02-22T00:05:45.601Z,13
2015-02-22T00:05:59.098Z,17
2015-02-22T00:06:13.117Z,17
2015-02-22T00:06:26.438Z,13
2015-02-22T00:06:40.277Z,2
2015-02-22T00:06:54.158Z,17
2015-02-22T00:07:07.662Z,17
2015-02-22T00:07:21.206Z,5
2015-02-22T00:07:35.144Z,17
2015-02-22T00:07:48.622Z,17
2015-02-22T00:08:02.182Z,17
2015-02-22T00:08:15.617Z,17
2015-02-22T00:08:29.062Z,17
2015-02-22T00:08:42.606Z,17
2015-02-22T00:08:56.064Z,17
2015-02-22T00:09:09.466Z,17
2015-02-22T00:09:22.906Z,5
2015-02-22T00:09:36.321Z,5
2015-02-22T00:09:49.764Z,5
2015-02-22T00:10:03.155Z,5
2015-02-22T00:10:16.528Z,8
2015-02-22T00:10:30.030Z,8
2015-02-22T00:10:43.464Z,8
2015-02-22T00:10:56.823Z,8
2015-02-22T00:11:10.292Z,8
2015-02-22T00:11:23.697Z,8
2015-02-22T00:11:37.050Z,8
2015-02-22T00:11:50.493Z,0
2015-02-22T00:12:03.933Z,0
2015-02-22T00:12:17.386Z,0
2015-02-22T00:12:30.777Z,0
2015-02-22T00:12:44.166Z,0
2015-02-22T00:12:57.687Z,0
2015-02-22T00:13:11.075Z,0
2015-02-22T00:13:24.394Z,0
2015-02-22T00:13:37.846Z,0
2015-02-22T00:13:51.292Z,0
2015-02-22T00:14:04.626Z,0
2015-02-22T00:14:18.039Z,0
2015-02-22T00:14:31.527Z,0
2015-02-22T00:14:44.872Z,0
2015-02-22T00:14:58.234Z,0
2015-02-22T00:15:11.596Z,0
2015-02-22T00:15:25.039Z,0
2015-02-22T00:15:38.465Z,0
2015-02-22T00:15:51.796Z,0
2015-02-22T00:16:05.206Z,0
2015-02-22T00:16:18.666Z,0
2015-02-22T00:16:31.990Z,0
2015-02-22T00:16:45.404Z,0
2015-02-22T00:16:58.834Z,0
2015-02-22T00:17:12.476Z,0
2015-02-22T00:17:25.875Z,0
2015-02-22T00:17:39.349Z,0
2015-02-22T00:17:52.752Z,0
2015-02-22T00:18:06.188Z,0
2015-02-22T00:18:19.536Z,0
2015-02-22T00:18:32.932Z,0
2015-02-22T00:18:46.374Z,0
2015-02-22T00:18:59.706Z,0
2015-02-22T00:19:13.082Z,0
2015-02-22T00:19:26.600Z,0
2015-02-22T00:19:40.014Z,0
2015-02-22T00:19:53.364Z,0
2015-02-22T00:20:06.798Z,0
2015-02-22T00:20:20.213Z,0
2015-02-22T00:20:33.555Z,0
2015-02-22T00:20:46.956Z,0
2015-02-22T00:21:00.320Z,0
2015-02-22T00:21:13.707Z,0
2015-02-22T00:21:27.111Z,0
2015-02-22T00:21:40.479Z,0
2015-02-22T00:21:53.997Z,0
2015-02-22T00:22:07.445Z,0
2015-02-22T00:22:20.781Z,0
2015-02-22T00:22:34.238Z,0
2015-02-22T00:22:47.639Z,0
2015-02-22T00:23:00.982Z,0
2015-02-22T00:23:14.380Z,0
2015-02-22T00:23:27.853Z,0
2015-02-22T00:23:41.218Z,0
2015-02-22T00:23:54.690Z,0
2015-02-22T00:24:08.063Z,0
2015-02-22T00:24:21.536Z,0
2015-02-22T00:24:34.971Z,0
2015-02-22T00:24:48.319Z,0
2015-02-22T00:25:01.730Z,0
2015-02-22T00:25:15.178Z,0
2015-02-22T00:25:28.508Z,0
2015-02-22T00:25:41.906Z,0
2015-02-22T00:25:55.369Z,0
2015-02-22T00:26:08.756Z,0
2015-02-22T00:26:22.106Z,0
2015-02-22T00:26:35.573Z,0
2015-02-22T00:26:48.992Z,0
2015-02-22T00:27:02.338Z,0
2015-02-22T00:27:15.818Z,0
2015-02-22T00:27:29.238Z,0
2015-02-22T00:27:42.580Z,0
2015-02-22T00:27:55.990Z,0
2015-02-22T00:28:09.402Z,0
2015-02-22T00:28:22.710Z,0
2015-02-22T00:28:36.126Z,0
2015-02-22T00:28:49.581Z,0
2015-02-22T00:29:02.951Z,0
2015-02-22T00:29:16.402Z,0
2015-02-22T00:29:29.816Z,0
2015-02-22T00:29:43.248Z,0
2015-02-22T00:29:56.679Z,0
2015-02-22T00:30:10.028Z,0
2015-02-22T00:30:23.448Z,0
2015-02-22T00:30:36.894Z,0
2015-02-22T00:30:50.239Z,0
2015-02-22T00:31:03.607Z,0
2015-02-22T00:31:17.062Z,0
2015-02-22T00:31:30.441Z,0
2015-02-22T00:31:43.813Z,0
2015-02-22T00:31:57.251Z,0
2015-02-22T00:32:10.628Z,0
2015-02-22T00:32:24.052Z,0
2015-02-22T00:32:37.383Z,0
2015-02-22T00:32:50.780Z,0
2015-02-22T00:33:04.230Z,0
2015-02-22T00:33:17.607Z,0
2015-02-22T00:33:30.889Z,0
2015-02-22T00:33:44.346Z,0
2015-02-22T00:33:57.803Z,0
2015-02-22T00:34:11.159Z,0
2015-02-22T00:34:24.613Z,0
2015-02-22T00:34:38.019Z,0
2015-02-22T00:34:51.342Z,0
2015-02-22T00:35:04.789Z,0
2015-02-22T00:35:18.165Z,0
2015-02-22T00:35:31.635Z,0
2015-02-22T00:35:45.027Z,0
2015-02-22T00:35:58.367Z,0
2015-02-22T00:36:11.844Z,0
2015-02-22T00:36:25.227Z,0
2015-02-22T00:36:38.573Z,0
2015-02-22T00:36:52.008Z,0
2015-02-22T00:37:05.436Z,0
2015-02-22T00:37:18.804Z,0
2015-02-22T00:37:32.219Z,0
2015-02-22T00:37:45.719Z,0
2015-02-22T00:37:59.130Z,0
2015-02-22T00:38:12.536Z,0
2015-02-22T00:38:25.882Z,0
2015-02-22T00:38:39.315Z,0
2015-02-22T00:38:52.762Z,0
2015-02-22T00:39:06.104Z,0
2015-02-22T00:39:19.503Z,0
2015-02-22T00:39:32.975Z,0
2015-02-22T00:39:46.319Z,0
2015-02-22T00:39:59.755Z,0
2015-02-22T00:40:13.271Z,0
2015-02-22T00:40:26.626Z,0
2015-02-22T00:40:39.992Z,0
2015-02-22T00:40:53.392Z,0
2015-02-22T00:41:06.783Z,0
2015-02-22T00:41:20.229Z,0
2015-02-22T00:41:33.561Z,0
2015-02-22T00:41:46.982Z,0
2015-02-22T00:42:00.473Z,0
2015-02-22T00:42:13.799Z,0
2015-02-22T00:42:27.184Z,0
2015-02-22T00:42:40.627Z,0
2015-02-22T00:42:53.926Z,0
2015-02-22T00:43:07.272Z,0
2015-02-22T00:43:20.760Z,0
2015-02-22T00:43:34.162Z,0
2015-02-22T00:43:47.591Z,0
2015-02-22T00:44:00.989Z,0
2015-02-22T00:44:14.337Z,0
2015-02-22T00:44:27.773Z,0
2015-02-22T00:44:41.147Z,0
2015-02-22T00:44:54.476Z,0
2015-02-22T00:45:07.926Z,0
2015-02-22T00:45:21.342Z,0
2015-02-22T00:45:34.703Z,0
2015-02-22T00:45:48.162Z,0
2015-02-22T00:46:01.634Z,0
2015-02-22T00:46:14.973Z,0
2015-02-22T00:46:28.341Z,0
2015-02-22T00:46:41.722Z,0
2015-02-22T00:46:55.199Z,0
2015-02-22T00:47:08.735Z,0
2015-02-22T00:47:22.413Z,0
2015-02-22T00:47:36.007Z,0
2015-02-22T00:47:49.434Z,0
2015-02-22T00:48:02.778Z,0
2015-02-22T00:48:16.174Z,0
2015-02-22T00:48:29.614Z,0
2015-02-22T00:48:42.972Z,0
2015-02-22T00:48:56.360Z,0
2015-02-22T00:49:09.830Z,0
2015-02-22T00:49:23.210Z,0
2015-02-22T00:49:36.604Z,0
2015-02-22T00:49:50.050Z,0
2015-02-22T00:50:03.463Z,0
2015-02-22T00:50:16.804Z,0
2015-02-22T00:50:30.259Z,0
2015-02-22T00:50:43.699Z,0
2015-02-22T00:50:57.051Z,0
2015-02-22T00:51:10.482Z,0
2015-02-22T00:51:23.899Z,0
2015-02-22T00:51:37.236Z,0
2015-02-22T00:51:50.667Z,0
2015-02-22T00:52:04.101Z,0
2015-02-22T00:52:17.520Z,0
2015-02-22T00:52:30.931Z,0
2015-02-22T00:52:44.301Z,0
2015-02-22T00:52:57.788Z,0
2015-02-22T00:53:11.201Z,0
2015-02-22T00:53:24.543Z,0
2015-02-22T00:53:37.939Z,0
2015-02-22T00:53:51.408Z,0
2015-02-22T00:54:04.746Z,0
2015-02-22T00:54:18.145Z,0
2015-02-22T00:54:31.601Z,0
2015-02-22T00:54:44.979Z,0
2015-02-22T00:54:58.360Z,0
2015-02-22T00:55:11.759Z,0
2015-02-22T00:55:25.151Z,0
2015-02-22T00:55:38.574Z,0
2015-02-22T00:55:51.921Z,0
2015-02-22T00:56:05.310Z,0
2015-02-22T00:56:18.765Z,0
2015-02-22T00:56:32.144Z,0
2015-02-22T00:56:45.550Z,0
2015-02-22T00:56:58.999Z,0
2015-02-22T00:57:12.381Z,0
2015-02-22T00:57:25.736Z,0
2015-02-22T00:57:39.183Z,0
2015-02-22T00:57:52.578Z,0
2015-02-22T00:58:06.004Z,0
2015-02-22T00:58:19.383Z,0
2015-02-22T00:58:32.782Z,0
2015-02-22T00:58:46.226Z,0
2015-02-22T00:58:59.591Z,0
2015-02-22T00:59:12.950Z,0
2015-02-22T00:59:26.417Z,0
2015-02-22T00:59:39.827Z,0
2015-02-22T00:59:53.173Z,0
2015-02-22T01:00:06.621Z,0
2015-02-22T01:00:20.038Z,0
2015-02-22T01:00:33.362Z,0
2015-02-22T01:00:46.771Z,0
2015-02-22T01:01:00.133Z,0
2015-02-22T01:01:13.569Z,0
2015-02-22T01:01:26.985Z,0
2015-02-22T01:01:40.363Z,0
2015-02-22T01:01:53.820Z,0
2015-02-22T01:02:07.222Z,0
2015-02-22T01:02:20.589Z,0
2015-02-22T01:02:34.006Z,0
2015-02-22T01:02:47.460Z,0
2015-02-22T01:03:00.917Z,0
2015-02-22T01:03:14.299Z,0
2015-02-22T01:03:27.805Z,0
2015-02-22T01:03:41.158Z,0
2015-02-22T01:03:54.608Z,0
2015-02-22T01:04:07.937Z,0
2015-02-22T01:04:21.345Z,0
2015-02-22T01:04:34.819Z,0
2015-02-22T01:04:48.172Z,0
2015-02-22T01:05:01.555Z,0
2015-02-22T01:05:14.999Z,0
2015-02-22T01:05:28.357Z,0
2015-02-22T01:05:41.725Z,0
2015-02-22T01:05:55.149Z,0
2015-02-22T01:06:08.529Z,0
2015-02-22T01:06:21.872Z,0
2015-02-22T01:06:35.316Z,0
2015-02-22T01:06:48.733Z,0
2015-02-22T01:07:02.191Z,0
2015-02-22T01:07:15.549Z,0
2015-02-22T01:07:28.890Z,0
2015-02-22T01:07:42.326Z,0
2015-02-22T01:07:55.702Z,0
2015-02-22T01:08:09.039Z,0
2015-02-22T01:08:22.504Z,0
2015-02-22T01:08:35.945Z,0
2015-02-22T01:08:49.281Z,0
2015-02-22T01:09:02.691Z,0
2015-02-22T01:09:16.122Z,0
2015-02-22T01:09:29.569Z,0
2015-02-22T01:09:42.948Z,0
2015-02-22T01:09:56.862Z,0
2015-02-22T01:10:10.309Z,0
2015-02-22T01:10:23.728Z,0
2015-02-22T01:10:37.051Z,0
2015-02-22T01:10:50.468Z,0
2015-02-22T01:11:03.865Z,0
2015-02-22T01:11:17.205Z,0
2015-02-22T01:11:30.598Z,0
2015-02-22T01:11:44.048Z,0
2015-02-22T01:11:57.411Z,0
2015-02-22T01:12:10.810Z,0
2015-02-22T01:12:24.300Z,0
2015-02-22T01:12:37.642Z,0
2015-02-22T01:12:51.011Z,0
2015-02-22T01:13:04.447Z,0
2015-02-22T01:13:17.858Z,0
2015-02-22T01:13:31.229Z,0
2015-02-22T01:13:44.695Z,0
2015-02-22T01:13:58.101Z,0
2015-02-22T01:14:11.449Z,0
2015-02-22T01:14:24.901Z,0
2015-02-22T01:14:38.309Z,0
2015-02-22T01:14:51.519Z,0
2015-02-22T01:15:04.915Z,0
2015-02-22T01:15:18.304Z,0
2015-02-22T01:15:31.779Z,0
2015-02-22T01:15:45.157Z,0
2015-02-22T01:15:58.513Z,0
2015-02-22T01:16:11.953Z,0
2015-02-22T01:16:25.318Z,0
2015-02-22T01:16:38.583Z,0
2015-02-22T01:16:51.979Z,0
2015-02-22T01:17:05.443Z,0
2015-02-22T01:17:22.189Z,0
2015-02-22T01:17:35.580Z,0
2015-02-22T01:17:49.022Z,0
2015-02-22T01:18:02.371Z,0
2015-02-22T01:18:15.813Z,0
2015-02-22T01:18:29.135Z,0
2015-02-22T01:18:42.604Z,0
2015-02-22T01:18:56.065Z,0
2015-02-22T01:19:09.423Z,0
2015-02-22T01:19:22.807Z,0
2015-02-22T01:19:36.261Z,0
2015-02-22T01:19:49.602Z,0
2015-02-22T01:20:02.955Z,0
2015-02-22T01:20:16.398Z,0
2015-02-22T01:20:29.761Z,0
2015-02-22T01:20:43.096Z,0
2015-02-22T01:20:56.550Z,0
2015-02-22T01:21:09.970Z,0
2015-02-22T01:21:23.423Z,0
2015-02-22T01:21:36.750Z,0
2015-02-22T01:21:50.090Z,0
2015-02-22T01:22:03.459Z,0
2015-02-22T01:22:16.878Z,0
2015-02-22T01:22:30.206Z,0
2015-02-22T01:22:43.724Z,0
2015-02-22T01:22:57.168Z,0
2015-02-22T01:23:10.482Z,0
2015-02-22T01:23:23.921Z,0
2015-02-22T01:23:37.338Z,0
2015-02-22T01:23:50.713Z,0
2015-02-22T01:24:04.088Z,0
2015-02-22T01:24:17.487Z,0
2015-02-22T01:24:30.952Z,0
2015-02-22T01:24:44.355Z,0
2015-02-22T01:24:57.725Z,0
2015-02-22T01:25:11.117Z,0
2015-02-22T01:25:24.479Z,0
2015-02-22T18:17:23.685Z,2298
2015-02-22T18:17:36.922Z,2371
2015-02-22T18:17:50.263Z,2457
2015-02-22T18:18:03.534Z,2387
2015-02-22T18:18:16.778Z,2487
2015-02-22T18:18:30.199Z,2465
2015-02-22T18:18:43.437Z,2379
2015-02-22T18:18:56.560Z,2519
2015-02-22T18:19:09.961Z,2436
2015-02-22T18:19:23.258Z,2425
2015-02-22T18:19:36.438Z,2445
2015-02-22T18:19:49.772Z,2467
2015-02-22T18:20:03.121Z,2467
2015-02-22T18:20:16.350Z,2278
2015-02-22T18:20:29.656Z,2328
2015-02-22T18:20:42.863Z,2261
2015-02-22T18:20:56.202Z,2154
2015-02-22T18:21:09.504Z,2149
2015-02-22T18:21:22.700Z,2260
2015-02-22T18:21:36.021Z,2279
2015-02-22T18:21:49.336Z,2295
2015-02-22T18:22:02.574Z,2197
2015-02-22T18:22:15.886Z,2224
2015-02-22T18:22:29.309Z,2337
2015-02-22T18:22:42.464Z,2287
2015-02-22T18:22:55.793Z,2373
2015-02-22T18:23:09.098Z,2335
2015-02-22T18:23:22.309Z,2367
2015-02-22T18:23:35.667Z,2438
2015-02-22T18:23:48.759Z,2411
2015-02-22T18:24:02.082Z,2467
2015-02-22T18:24:15.493Z,2413
2015-02-22T18:24:28.680Z,2476
2015-02-22T18:24:41.965Z,2513
2015-02-22T18:24:55.347Z,2525
2015-02-22T18:25:08.572Z,2548
2015-02-22T18:25:21.814Z,2550
2015-02-22T18:25:35.454Z,2593
2015-02-22T18:25:48.777Z,2560
2015-02-22T18:26:01.961Z,2574
2015-02-22T18:26:15.385Z,2540
2015-02-22T18:26:28.666Z,2546
2015-02-22T18:26:41.759Z,2608
2015-02-22T18:26:55.066Z,2546
2015-02-22T18:27:08.413Z,2592
2015-02-22T18:27:21.582Z,2551
2015-02-22T18:27:34.906Z,2586
2015-02-22T18:27:48.270Z,2502
2015-02-22T18:28:01.431Z,2532
2015-02-22T18:28:14.681Z,2604
2015-02-22T18:28:28.004Z,2518
2015-02-22T18:28:41.167Z,2545
2015-02-22T18:28:54.336Z,2569
2015-02-22T18:29:07.610Z,2491
2015-02-22T18:29:20.928Z,2485
2015-02-22T18:29:34.264Z,2550
2015-02-22T18:29:47.395Z,2582
2015-02-22T18:30:00.620Z,2583
2015-02-22T18:30:14.230Z,2632
2015-02-22T18:30:27.422Z,2723
2015-02-22T18:30:40.553Z,2759
2015-02-22T18:30:53.884Z,2658
2015-02-22T18:31:07.119Z,2726
2015-02-22T18:31:20.303Z,2766
2015-02-22T18:31:33.675Z,2717
2015-02-22T18:31:46.939Z,2788
2015-02-22T18:32:00.171Z,2729
2015-02-22T18:32:13.290Z,2761
2015-02-22T18:32:26.471Z,2784
2015-02-22T18:32:39.798Z,2696
2015-02-22T18:32:53.007Z,2785
2015-02-22T18:33:06.163Z,2779
2015-02-22T18:33:19.484Z,2655
2015-02-22T18:33:32.750Z,2624
2015-02-22T18:33:45.921Z,2649
2015-02-22T18:33:59.203Z,2687
2015-02-22T18:34:12.496Z,2742
2015-02-22T18:34:25.681Z,2718
2015-02-22T18:34:38.949Z,2739
2015-02-22T18:34:52.259Z,1875
2015-02-22T18:35:05.601Z,2711
2015-02-22T18:35:19.536Z,2676
2015-02-22T18:35:32.704Z,2700
2015-02-22T18:35:45.976Z,2729
2015-02-22T18:35:59.267Z,2633
2015-02-22T18:36:12.436Z,2601
2015-02-22T18:36:25.719Z,2705
2015-02-22T18:36:39.036Z,2590
2015-02-22T18:36:52.170Z,2606
2015-02-22T18:37:05.393Z,2673
2015-02-22T18:37:18.764Z,2644
2015-02-22T18:37:31.927Z,2731
2015-02-22T18:37:45.115Z,2612
2015-02-22T18:37:58.479Z,2621
2015-02-22T18:38:12.333Z,2590
2015-02-22T18:38:25.519Z,2626
2015-02-22T18:38:38.874Z,2692
2015-02-22T18:38:52.160Z,2755
2015-02-22T18:39:05.301Z,2650
2015-02-22T18:39:18.607Z,2596
2015-02-22T18:39:31.894Z,2691
2015-02-22T18:39:45.030Z,2703
2015-02-22T18:39:58.288Z,2620
2015-02-22T18:40:11.623Z,2677
2015-02-22T18:40:24.839Z,2686
2015-02-22T18:40:38.143Z,2746
2015-02-22T18:40:51.316Z,2669
2015-02-22T18:41:04.579Z,2726
2015-02-22T18:41:17.879Z,2614
2015-02-22T18:41:31.017Z,2711
2015-02-22T18:41:44.273Z,2689
2015-02-22T18:41:57.600Z,2561
2015-02-22T18:42:10.736Z,2638
2015-02-22T18:42:23.928Z,2632
2015-02-22T18:42:37.276Z,2657
2015-02-22T18:42:50.481Z,2615
2015-02-22T18:43:03.689Z,2645
2015-02-22T18:43:16.954Z,2642
2015-02-22T18:43:30.235Z,2632
2015-02-22T18:43:43.616Z,2500
2015-02-22T18:43:56.763Z,2662
2015-02-22T18:44:10.035Z,2560
2015-02-22T18:44:23.444Z,2526
2015-02-22T18:44:36.724Z,2587
2015-02-22T18:44:49.938Z,2590
2015-02-22T18:45:03.329Z,2594
2015-02-22T18:45:16.550Z,2643
2015-02-22T18:45:30.007Z,2586
2015-02-22T18:45:43.326Z,2576
2015-02-22T18:45:56.593Z,2574
2015-02-22T18:46:09.883Z,2671
2015-02-22T18:46:23.108Z,2526
2015-02-22T18:46:36.355Z,2608
2015-02-22T18:46:49.739Z,2624
2015-02-22T18:47:02.990Z,2482
2015-02-22T18:47:16.388Z,2560
2015-02-22T18:47:29.938Z,2628
2015-02-22T18:47:43.264Z,2573
2015-02-22T18:47:56.444Z,2639
2015-02-22T18:48:09.735Z,2645
2015-02-22T18:48:23.040Z,2627
2015-02-22T18:48:36.260Z,2572
2015-02-22T18:48:49.565Z,2561
2015-02-22T18:49:06.568Z,2709
2015-02-22T18:49:19.873Z,2652
2015-02-22T18:49:34.029Z,2655
2015-02-22T18:49:47.197Z,2706
2015-02-22T18:50:00.494Z,2575
2015-02-22T18:50:13.784Z,2640
2015-02-22T18:50:27.392Z,2715
2015-02-22T18:50:41.491Z,2646
2015-02-22T18:50:54.818Z,2684
2015-02-22T18:51:07.990Z,2751
2015-02-22T18:51:21.485Z,2741
2015-02-22T18:51:35.807Z,2651
2015-02-22T18:51:50.224Z,2614
2015-02-22T18:52:03.855Z,2625
2015-02-22T18:52:17.030Z,2730
2015-02-22T18:52:31.265Z,2740
2015-02-22T18:52:45.740Z,2721
2015-02-22T18:52:58.907Z,2689
2015-02-22T18:53:12.516Z,2592
2015-02-22T18:53:26.103Z,2592
2015-02-22T18:53:39.317Z,2619
2015-02-22T18:53:52.809Z,2721
2015-02-22T18:54:06.143Z,2718
2015-02-22T18:54:19.424Z,2676
2015-02-22T18:54:32.971Z,2727
2015-02-22T18:54:46.267Z,2648
2015-02-22T18:55:02.112Z,2638
2015-02-22T18:55:15.511Z,2740
2015-02-22T18:55:28.924Z,2662
2015-02-22T18:55:42.274Z,2640
2015-02-22T18:55:55.769Z,2645
2015-02-22T18:56:09.141Z,2715
2015-02-22T18:56:22.394Z,2638
2015-02-22T18:56:35.784Z,2643
2015-02-22T18:56:49.171Z,2605
2015-02-22T18:57:02.489Z,2753
2015-02-22T18:57:15.934Z,2616
2015-02-22T18:57:29.345Z,2687
2015-02-22T18:57:42.607Z,2672
2015-02-22T18:57:55.893Z,2609
2015-02-22T18:58:09.066Z,2644
2015-02-22T18:58:22.407Z,2704
2015-02-22T18:58:35.644Z,2652
2015-02-22T18:58:48.888Z,2631
2015-02-22T18:59:02.355Z,2644
2015-02-22T18:59:15.823Z,2697
2015-02-22T18:59:29.010Z,2751
2015-02-22T18:59:42.351Z,2670
2015-02-22T18:59:55.742Z,2615
2015-02-22T19:00:08.919Z,2758
2015-02-22T19:00:22.251Z,2635
2015-02-22T19:00:35.554Z,2601
2015-02-22T19:00:48.740Z,2693
2015-02-22T19:01:01.951Z,2591
2015-02-22T19:01:15.335Z,2628
2015-02-22T19:01:28.544Z,2577
2015-02-22T19:01:41.741Z,2688
2015-02-22T19:01:55.112Z,2650
2015-02-22T19:02:08.349Z,2701
2015-02-22T19:02:21.515Z,2709
2015-02-22T19:02:34.845Z,2707
2015-02-22T19:02:48.135Z,2644
2015-02-22T19:03:01.287Z,2687
2015-02-22T19:03:14.576Z,2641
2015-02-22T19:03:27.766Z,2631
2015-02-22T19:03:41.123Z,2722
2015-02-22T19:03:54.380Z,2628
2015-02-22T19:04:07.527Z,2622
2015-02-22T19:04:20.842Z,2618
2015-02-22T19:04:34.143Z,2687
2015-02-22T19:04:47.323Z,2679
2015-02-22T19:05:00.600Z,2617
2015-02-22T19:05:13.936Z,2676
2015-02-22T19:05:27.035Z,2580
2015-02-22T19:05:40.264Z,2559
2015-02-22T19:05:53.594Z,2581
2015-02-22T19:06:06.794Z,2672
2015-02-22T19:06:20.092Z,2624
2015-02-22T19:06:33.302Z,2635
2015-02-22T19:06:46.591Z,2654
2015-02-22T19:06:59.932Z,2593
2015-02-22T19:07:13.152Z,2578
2015-02-22T19:07:26.400Z,2610
2015-02-22T19:07:39.717Z,2668
2015-02-22T19:07:52.944Z,2700
2015-02-22T19:08:06.116Z,2678
2015-02-22T19:08:19.417Z,2573
2015-02-22T19:08:32.700Z,2694
2015-02-22T19:08:46.660Z,2621
2015-02-22T19:08:59.930Z,2709
2015-02-22T19:09:13.151Z,2708
2015-02-22T19:09:26.782Z,2552
2015-02-22T19:09:40.008Z,2615
2015-02-22T19:09:53.747Z,2609
2015-02-22T19:10:10.475Z,2649
2015-02-22T19:10:24.401Z,2606
2015-02-22T19:10:37.716Z,2646
2015-02-22T19:10:51.008Z,2682
2015-02-22T19:11:04.303Z,2700
2015-02-22T19:11:17.706Z,2663
2015-02-22T19:11:31.014Z,2663
2015-02-22T19:11:44.321Z,2688
2015-02-22T19:11:57.607Z,2644
2015-02-22T19:12:10.753Z,2571
2015-02-22T19:12:23.925Z,2698
2015-02-22T19:12:37.229Z,2727
2015-02-22T19:12:50.464Z,2692
2015-02-22T19:13:03.600Z,2751
2015-02-22T19:13:16.908Z,2693
2015-02-22T19:13:30.183Z,2717
2015-02-22T19:13:43.348Z,2734
2015-02-22T19:13:56.670Z,2598
2015-02-22T19:14:10.014Z,2719
2015-02-22T19:14:23.191Z,2638
2015-02-22T19:14:36.406Z,2612
2015-02-22T19:14:49.615Z,2696
2015-02-22T19:15:02.886Z,2594
2015-02-22T19:15:16.092Z,2704
2015-02-22T19:15:29.186Z,2693
2015-02-22T19:15:42.409Z,2684
2015-02-22T19:15:55.714Z,2565
2015-02-22T19:16:08.855Z,2713
2015-02-22T19:16:22.061Z,2608
2015-02-22T19:16:35.418Z,2590
2015-02-22T19:16:48.605Z,2695
2015-02-22T19:17:01.789Z,2668
2015-02-22T19:17:15.198Z,2725
2015-02-22T19:17:28.744Z,2661
2015-02-22T19:17:42.014Z,2556
2015-02-22T19:17:55.132Z,2601
2015-02-22T19:18:08.339Z,2604
2015-02-22T19:18:21.645Z,2621
2015-02-22T19:18:34.820Z,2701
2015-02-22T19:18:47.987Z,2631
2015-02-22T19:19:01.359Z,2673
2015-02-22T19:19:14.613Z,2560
2015-02-22T19:19:27.748Z,2633
2015-02-22T19:19:41.034Z,2558
2015-02-22T19:19:54.269Z,2595
2015-02-22T19:20:07.398Z,2608
2015-02-22T19:20:20.679Z,2614
2015-02-22T19:20:33.859Z,2611
2015-02-22T19:20:47.155Z,2570
2015-02-22T19:21:00.374Z,2625
2015-02-22T19:21:13.561Z,2716
2015-02-22T19:21:26.897Z,2681
2015-02-22T19:21:40.149Z,2619
2015-02-22T19:21:53.256Z,2675
2015-02-22T19:22:06.445Z,2703
2015-02-22T19:22:19.693Z,2680
2015-02-22T19:22:32.844Z,2647
2015-02-22T19:22:46.110Z,2761
2015-02-22T19:22:59.442Z,2604
2015-02-22T19:23:12.621Z,2602
2015-02-22T19:23:25.871Z,2635
2015-02-22T19:23:39.238Z,2670
2015-02-22T19:23:52.493Z,2685
2015-02-22T19:24:05.690Z,2621
2015-02-22T19:24:19.012Z,2726
2015-02-22T19:24:32.225Z,2759
2015-02-22T19:24:45.349Z,2724
2015-02-22T19:24:58.656Z,2599
2015-02-22T19:25:11.931Z,2630
2015-02-22T19:25:25.202Z,2664
2015-02-22T19:25:38.524Z,2729
2015-02-22T19:25:51.861Z,2651
2015-02-22T19:26:06.092Z,2613
2015-02-22T19:26:19.708Z,2639
2015-02-22T19:26:33.727Z,2659
2015-02-22T19:26:47.050Z,2680
2015-02-22T19:27:00.402Z,2581
2015-02-22T19:27:14.320Z,2724
2015-02-22T19:27:27.673Z,2727
2015-02-22T19:27:41.885Z,2590
2015-02-22T19:27:56.462Z,2660
2015-02-22T19:29:06.779Z,2640
2015-02-22T19:29:25.445Z,2652
2015-02-22T19:29:40.888Z,2668
2015-02-22T19:29:57.253Z,2605
2015-02-22T19:30:14.475Z,2596
2015-02-22T19:30:30.881Z,2696
2015-02-22T19:30:47.488Z,2626
2015-02-22T19:31:05.070Z,2709
2015-02-22T19:31:20.788Z,2661
2015-02-22T19:31:35.608Z,2685
2015-02-22T19:31:51.061Z,2574
2015-02-22T19:32:07.280Z,2664
2015-02-22T19:32:22.867Z,2603
2015-02-22T19:32:36.799Z,2663
2015-02-22T19:32:50.046Z,2599
2015-02-22T19:33:05.890Z,2617
2015-02-22T19:33:23.254Z,2655
2015-02-22T19:33:41.099Z,2725
2015-02-22T19:33:57.903Z,2520
2015-02-22T19:34:14.822Z,2704
2015-02-22T19:34:30.727Z,2728
2015-02-22T19:34:47.926Z,2676
2015-02-22T19:35:04.529Z,2609
2015-02-22T19:35:21.235Z,2609
2015-02-22T19:35:42.850Z,2712
2015-02-22T19:35:58.311Z,2579
2015-02-22T19:36:12.145Z,2715
2015-02-22T19:36:26.473Z,2614
2015-02-22T19:36:39.976Z,2724
2015-02-22T19:36:55.291Z,2625
2015-02-22T19:37:09.531Z,2653
2015-02-22T19:37:23.704Z,2673
2015-02-22T19:37:39.486Z,2743
2015-02-22T19:37:53.215Z,2600
2015-02-22T19:38:06.731Z,2588
2015-02-22T19:38:20.603Z,2683
2015-02-22T19:38:34.806Z,2729
2015-02-22T19:38:48.281Z,2612
2015-02-22T19:39:02.477Z,2638
2015-02-22T19:39:16.113Z,2659
2015-02-22T19:39:29.674Z,2678
2015-02-22T19:39:43.746Z,2674
2015-02-22T19:39:57.477Z,2726
2015-02-22T19:40:10.971Z,2613
2015-02-22T19:40:24.638Z,2691
2015-02-22T19:40:38.864Z,2680
2015-02-22T19:40:52.463Z,2665
2015-02-22T19:41:06.010Z,2721
2015-02-22T19:41:19.636Z,2689
2015-02-22T19:41:34.122Z,2670
2015-02-22T19:41:47.604Z,2613
2015-02-22T19:42:01.679Z,2629
2015-02-22T19:42:15.547Z,2626
2015-02-22T19:42:28.860Z,2702
2015-02-22T19:42:42.923Z,2629
2015-02-22T19:42:56.735Z,2658
2015-02-22T19:43:12.194Z,2644
2015-02-22T19:43:27.003Z,2707
2015-02-22T19:43:44.358Z,2646
2015-02-22T19:44:01.116Z,2625
2015-02-22T19:44:24.402Z,2660
2015-02-22T19:44:39.930Z,2652
2015-02-22T19:44:55.190Z,2661
2015-02-22T19:45:10.737Z,2664
2015-02-22T19:45:25.629Z,2637
2015-02-22T19:45:40.826Z,2750
2015-02-22T19:46:03.341Z,2655
2015-02-22T19:46:22.155Z,2782
2015-02-22T19:46:45.159Z,2631
2015-02-22T19:46:59.383Z,2644
2015-02-22T19:47:14.469Z,2631
2015-02-22T19:47:30.115Z,2615
2015-02-22T19:47:44.868Z,2740
2015-02-22T19:47:59.171Z,2618
2015-02-22T19:48:15.439Z,2751
2015-02-22T19:48:30.543Z,2638
2015-02-22T19:48:53.494Z,2656
2015-02-22T19:49:17.722Z,2672
2015-02-22T19:49:37.985Z,2631
2015-02-22T19:49:58.055Z,2690
2015-02-22T19:50:22.823Z,2745
2015-02-22T19:50:43.345Z,2760
2015-02-22T19:51:01.921Z,2756
2015-02-22T19:51:24.066Z,2721
2015-02-22T19:51:38.169Z,2732
2015-02-22T19:51:51.629Z,2749
2015-02-22T19:52:05.059Z,2737
2015-02-22T19:52:18.441Z,2778
2015-02-22T19:52:31.578Z,2775
2015-02-22T19:52:44.834Z,2686
2015-02-22T19:52:58.190Z,2686
2015-02-22T19:53:11.414Z,2654
2015-02-22T19:53:24.623Z,2702
2015-02-22T19:53:37.916Z,2765
2015-02-22T19:53:51.166Z,2765
2015-02-22T19:54:04.523Z,2643
2015-02-22T19:54:17.726Z,2784
2015-02-22T19:54:30.938Z,2749
2015-02-22T19:54:44.302Z,2714
2015-02-22T19:54:57.659Z,2681
2015-02-22T19:55:15.710Z,2620
2015-02-22T19:55:30.264Z,2758
2015-02-22T19:55:44.656Z,2693
2015-02-22T19:55:58.545Z,2661
2015-02-22T19:56:13.307Z,2675
2015-02-22T19:56:27.346Z,2710
2015-02-22T19:56:42.333Z,2769
2015-02-22T19:56:58.411Z,2760
2015-02-22T19:57:32.868Z,2693
2015-02-22T19:57:59.939Z,2777
2015-02-22T19:58:16.510Z,2682
2015-02-22T19:58:33.105Z,2647
2015-02-22T19:58:49.423Z,2774
2015-02-22T19:59:08.275Z,2647
2015-02-22T19:59:24.332Z,2766
2015-02-22T19:59:41.016Z,2672
2015-02-22T19:59:56.962Z,2723
2015-02-22T20:00:12.290Z,2715
2015-02-22T20:00:27.683Z,2748
2015-02-22T20:00:44.616Z,2680
2015-02-22T20:01:04.958Z,2753
2015-02-22T20:01:22.297Z,2723
2015-02-22T20:01:39.927Z,2661
2015-02-22T20:01:55.798Z,2697
2015-02-22T20:02:14.078Z,2734
2015-02-22T20:02:28.634Z,2678
2015-02-22T20:02:44.224Z,2645
2015-02-22T20:03:02.522Z,2656
2015-02-22T20:03:20.363Z,2707
2015-02-22T20:03:36.565Z,2675
2015-02-22T20:03:50.855Z,2738
2015-02-22T20:04:06.424Z,2700
2015-02-22T20:04:22.451Z,2732
2015-02-22T20:04:38.256Z,2656
2015-02-22T20:04:53.586Z,2662
2015-02-22T20:05:09.405Z,2732